Time;durP1;ratioP1;P1;durP2;ratioP2;P2;SDS_P1;SDS_P2;PMS_P1;PMS_P2;Temp;Humidity;BMP_temperature;BMP_pressure;BME280_temperature;BME280_humidity;BME280_pressure;Samples;Min_cycle;Max_cycle;Signal;HPM_P1;HPM_P2
2023/01/11 00:01:01;;;;;;;;;;;;;;;9.37;100.00;100639.94;5084648;28;19927;-61
2023/01/11 00:03:26;;;;;;;;;;;;;;;9.43;100.00;100650.69;5072737;28;19916;-57
2023/01/11 00:05:54;;;;;;;;;;;;;;;9.48;100.00;100645.69;5078238;28;19942;-60
2023/01/11 00:08:20;;;;;;;;;;;;;;;9.53;100.00;100658.44;5083034;28;20062;-60
2023/01/11 00:10:46;;;;;;;;;;;;;;;9.54;100.00;100641.53;5075005;28;19917;-60
2023/01/11 00:13:12;;;;;;;;;;;;;;;9.53;100.00;100639.88;5078099;28;19916;-61
2023/01/11 00:15:39;;;;;;;;;;;;;;;9.56;100.00;100640.41;5077793;28;19920;-62
2023/01/11 00:18:04;;;;;;;;;;;;;;;9.60;100.00;100635.59;5081596;28;20493;-60
2023/01/11 00:20:29;;;;;;;;;;;;;;;9.62;100.00;100629.13;5079221;28;19924;-61
2023/01/11 00:22:55;;;;;;;;;;;;;;;9.60;100.00;100623.16;5076835;28;19916;-60
2023/01/11 00:25:20;;;;;;;;;;;;;;;9.61;100.00;100621.34;5075475;28;20044;-59
2023/01/11 00:27:48;;;;;;;;;;;;;;;9.66;100.00;100620.81;5076651;28;19916;-60
2023/01/11 00:30:14;;;;;;;;;;;;;;;9.66;100.00;100626.94;5075551;28;21746;-61
2023/01/11 00:32:39;;;;;;;;;;;;;;;9.68;100.00;100624.97;5076344;28;19920;-60
2023/01/11 00:35:05;;;;;;;;;;;;;;;9.71;100.00;100623.78;5077213;28;19916;-61
2023/01/11 00:37:30;;;;;;;;;;;;;;;9.77;100.00;100607.19;5075693;28;20082;-61
2023/01/11 00:39:56;;;;;;;;;;;;;;;9.80;100.00;100612.97;5075414;28;19917;-57
2023/01/11 00:48:22;;;;;;;;;;;;;;;9.75;100.00;100611.84;5074803;28;20076;-61
2023/01/11 00:50:41;;;;;;;;;;;;;;;9.69;100.00;100605.41;5074992;28;19990;-61
2023/01/11 00:53:07;;;;;;;;;;;;;;;9.67;100.00;100609.22;5076357;28;19928;-58
2023/01/11 00:55:32;;;;;;;;;;;;;;;9.66;100.00;100604.91;5069297;28;20330;-60
2023/01/11 00:57:57;;;;;;;;;;;;;;;9.65;100.00;100600.59;5074664;28;19966;-59
2023/01/11 01:00:23;;;;;;;;;;;;;;;9.63;100.00;100600.78;5071411;28;19974;-58
2023/01/11 01:02:49;;;;;;;;;;;;;;;9.59;100.00;100595.00;5074767;28;19962;-62
2023/01/11 01:05:15;;;;;;;;;;;;;;;9.59;100.00;100604.78;5072589;28;19916;-59
2023/01/11 01:07:40;;;;;;;;;;;;;;;9.57;100.00;100597.00;5067357;28;19927;-58
2023/01/11 01:10:06;;;;;;;;;;;;;;;9.54;100.00;100610.59;5075787;28;19920;-60
2023/01/11 01:15:16;;;;;;;;;;;;;;;9.51;100.00;100597.66;5072081;28;19935;-60
2023/01/11 01:17:41;;;;;;;;;;;;;;;9.50;100.00;100590.69;5078583;28;19928;-60
2023/01/11 01:20:07;;;;;;;;;;;;;;;9.50;100.00;100605.78;5074184;28;20442;-59
2023/01/11 01:22:32;;;;;;;;;;;;;;;9.49;100.00;100610.25;5072920;28;19916;-60
2023/01/11 01:24:57;;;;;;;;;;;;;;;9.49;100.00;100612.06;5076030;28;20291;-60
2023/01/11 01:27:23;;;;;;;;;;;;;;;9.48;100.00;100605.94;5077431;28;20319;-58
2023/01/11 01:29:48;;;;;;;;;;;;;;;9.50;100.00;100611.06;5080143;28;19919;-60
2023/01/11 01:32:14;;;;;;;;;;;;;;;9.50;100.00;100611.91;5076879;28;19923;-60
2023/01/11 01:34:39;;;;;;;;;;;;;;;9.50;100.00;100613.72;5071695;28;20296;-60
2023/01/11 01:37:05;;;;;;;;;;;;;;;9.50;100.00;100606.59;5081570;28;19928;-60
2023/01/11 01:39:30;;;;;;;;;;;;;;;9.50;100.00;100606.59;5071092;28;19927;-60
2023/01/11 01:41:55;;;;;;;;;;;;;;;9.50;100.00;100606.59;5076943;28;20019;-60
2023/01/11 01:44:39;;;;;;;;;;;;;;;9.52;100.00;100607.25;5075002;28;19924;-61
2023/01/11 01:47:04;;;;;;;;;;;;;;;9.54;100.00;100602.63;5074902;28;19916;-60
2023/01/11 01:49:29;;;;;;;;;;;;;;;9.55;100.00;100608.75;5071445;28;19924;-60
2023/01/11 01:51:56;;;;;;;;;;;;;;;9.55;100.00;100604.28;5074674;28;19923;-61
2023/01/11 01:54:26;;;;;;;;;;;;;;;9.57;100.00;100596.16;5071272;28;19956;-61
2023/01/11 01:56:53;;;;;;;;;;;;;;;9.57;100.00;100594.34;5075065;28;20391;-61
2023/01/11 01:59:20;;;;;;;;;;;;;;;9.58;100.00;100592.50;5075933;28;20013;-61
2023/01/11 02:01:46;;;;;;;;;;;;;;;9.63;100.00;100595.47;5076462;28;19920;-61
2023/01/11 02:04:26;;;;;;;;;;;;;;;9.67;100.00;100610.03;5072852;28;19916;-62
2023/01/11 02:06:55;;;;;;;;;;;;;;;9.68;100.00;100595.78;5072559;28;19916;-61
2023/01/11 02:09:39;;;;;;;;;;;;;;;9.71;100.00;100603.41;5072015;28;19927;-62
2023/01/11 02:12:05;;;;;;;;;;;;;;;9.72;100.00;100601.56;5070455;28;19916;-62
2023/01/11 02:14:31;;;;;;;;;;;;;;;9.75;100.00;100598.56;5077065;28;19916;-62
2023/01/11 02:16:57;;;;;;;;;;;;;;;9.76;100.00;100602.88;5077391;28;19920;-63
2023/01/11 02:19:43;;;;;;;;;;;;;;;9.77;100.00;100593.94;5078096;28;20446;-61
2023/01/11 02:22:08;;;;;;;;;;;;;;;9.77;100.00;100588.63;5077617;28;19923;-61
2023/01/11 02:24:36;;;;;;;;;;;;;;;9.80;100.00;100604.19;5074625;28;19916;-61
2023/01/11 02:27:15;;;;;;;;;;;;;;;9.81;100.00;100603.19;5074909;28;19930;-63
2023/01/11 02:30:01;;;;;;;;;;;;;;;9.83;100.00;100595.88;5074758;28;20010;-61
2023/01/11 02:32:32;;;;;;;;;;;;;;;9.83;100.00;100594.09;5081942;28;19916;-61
2023/01/11 02:35:10;;;;;;;;;;;;;;;9.87;100.00;100600.69;5075037;28;19917;-60
2023/01/11 02:37:35;;;;;;;;;;;;;;;9.90;100.00;100588.91;5076654;28;20020;-61
2023/01/11 02:40:12;;;;;;;;;;;;;;;9.89;100.00;100590.75;5073150;28;20011;-57
2023/01/11 02:45:50;;;;;;;;;;;;;;;9.91;100.00;100578.13;5075542;28;20063;-59
2023/01/11 02:48:25;;;;;;;;;;;;;;;9.94;100.00;100582.28;5071288;28;20376;-58
2023/01/11 02:50:57;;;;;;;;;;;;;;;9.95;100.00;100581.25;5076405;28;20015;-59
2023/01/11 02:53:26;;;;;;;;;;;;;;;9.98;100.00;100583.56;5072903;28;20311;-57
2023/01/11 02:55:55;;;;;;;;;;;;;;;10.02;100.00;100579.56;5075976;28;20015;-60
2023/01/11 02:58:21;;;;;;;;;;;;;;;10.04;100.00;100576.75;5071178;28;20517;-59
2023/01/11 03:00:47;;;;;;;;;;;;;;;10.03;100.00;100583.88;5078053;28;19916;-59
2023/01/11 03:03:20;;;;;;;;;;;;;;;10.05;100.00;100581.03;5075726;28;19923;-59
2023/01/11 03:05:58;;;;;;;;;;;;;;;10.08;100.00;100586.00;5074062;28;19917;-59
2023/01/11 03:08:31;;;;;;;;;;;;;;;10.09;100.00;100585.81;5075063;28;20006;-60
2023/01/11 03:11:05;;;;;;;;;;;;;;;10.10;100.00;100586.66;5076224;28;20299;-60
2023/01/11 03:13:30;;;;;;;;;;;;;;;10.09;100.00;100585.81;5072977;28;19924;-63
2023/01/11 03:16:13;;;;;;;;;;;;;;;10.11;100.00;100577.69;5076598;28;19923;-61
2023/01/11 03:18:40;;;;;;;;;;;;;;;10.11;100.00;100573.22;5074159;28;19952;-61
2023/01/11 03:21:15;;;;;;;;;;;;;;;10.12;100.00;100580.19;5083006;28;20426;-62
2023/01/11 03:23:47;;;;;;;;;;;;;;;10.13;100.00;100573.91;5077955;28;19927;-61
2023/01/11 03:26:18;;;;;;;;;;;;;;;10.15;100.00;100576.38;5082575;28;19915;-60
2023/01/11 03:28:43;;;;;;;;;;;;;;;10.17;100.00;100572.53;5074092;28;19939;-62
2023/01/11 03:31:27;;;;;;;;;;;;;;;10.15;100.00;100571.88;5075580;28;19915;-63
2023/01/11 03:34:04;;;;;;;;;;;;;;;10.16;100.00;100575.38;5079720;28;19925;-62
2023/01/11 03:36:32;;;;;;;;;;;;;;;10.17;100.00;100583.16;5080246;28;19921;-60
2023/01/11 03:39:16;;;;;;;;;;;;;;;10.18;100.00;100574.19;5077810;28;19969;-61
2023/01/11 03:41:42;;;;;;;;;;;;;;;10.18;100.00;100573.38;5073885;28;20390;-62
2023/01/11 03:44:09;;;;;;;;;;;;;;;10.19;100.00;100585.63;5080082;28;19920;-61
2023/01/11 03:46:37;;;;;;;;;;;;;;;10.20;100.00;100584.63;5075248;28;19927;-63
2023/01/11 03:49:32;;;;;;;;;;;;;;;10.22;100.00;100582.66;5079780;28;19916;-61
2023/01/11 03:51:59;;;;;;;;;;;;;;;10.22;100.00;100575.53;5066404;28;19916;-61
2023/01/11 03:54:26;;;;;;;;;;;;;;;10.22;100.00;100575.53;5075827;28;19922;-61
2023/01/11 03:57:18;;;;;;;;;;;;;;;10.22;100.00;100580.84;5081682;28;20417;-61
2023/01/11 03:59:43;;;;;;;;;;;;;;;10.23;100.00;100585.13;5070568;28;19916;-63
2023/01/11 04:02:16;;;;;;;;;;;;;;;10.25;100.00;100587.63;5077561;28;19923;-61
2023/01/11 04:04:41;;;;;;;;;;;;;;;10.26;100.00;100588.44;5079028;28;19920;-62
2023/01/11 04:07:06;;;;;;;;;;;;;;;10.26;100.00;100594.56;5081166;28;20045;-61
2023/01/11 04:09:31;;;;;;;;;;;;;;;10.26;100.00;100597.22;5074252;28;19920;-62
2023/01/11 04:11:56;;;;;;;;;;;;;;;10.26;100.00;100591.91;5079457;28;19916;-61
2023/01/11 04:14:21;;;;;;;;;;;;;;;10.27;100.00;100592.75;5072335;28;19916;-62
2023/01/11 04:16:47;;;;;;;;;;;;;;;10.27;100.00;100600.72;5078183;28;19920;-61
2023/01/11 04:19:12;;;;;;;;;;;;;;;10.26;100.00;100601.72;5082695;28;19911;-63
2023/01/11 04:21:37;;;;;;;;;;;;;;;10.28;100.00;100615.63;5079935;28;20070;-61
2023/01/11 04:24:02;;;;;;;;;;;;;;;10.31;100.00;100617.94;5084142;28;19931;-64
2023/01/11 04:26:28;;;;;;;;;;;;;;;10.31;100.00;100617.94;5075344;28;19923;-64
2023/01/11 04:28:53;;;;;;;;;;;;;;;10.30;100.00;100614.44;5075146;28;19916;-62
2023/01/11 04:31:18;;;;;;;;;;;;;;;10.31;100.00;100621.41;5070169;28;19912;-62
2023/01/11 04:33:43;;;;;;;;;;;;;;;10.38;100.00;100619.72;5077070;28;19928;-65
2023/01/11 04:36:09;;;;;;;;;;;;;;;10.39;100.00;100634.63;5076996;28;19920;-62
2023/01/11 04:38:34;;;;;;;;;;;;;;;10.42;100.00;100622.88;5076053;28;20682;-62
2023/01/11 04:43:43;;;;;;;;;;;;;;;10.43;100.00;100625.34;5072279;28;19924;-64
2023/01/11 04:46:09;;;;;;;;;;;;;;;10.44;100.00;100615.56;5078650;28;19912;-62
2023/01/11 04:48:36;;;;;;;;;;;;;;;10.44;100.00;100618.22;5075289;28;20364;-63
2023/01/11 04:51:01;;;;;;;;;;;;;;;10.45;100.00;100622.50;5073945;28;19912;-65
2023/01/11 04:53:27;;;;;;;;;;;;;;;10.41;100.00;100632.66;5078840;28;19923;-62
2023/01/11 04:55:52;;;;;;;;;;;;;;;10.45;100.00;100638.44;5075220;28;19912;-62
2023/01/11 04:58:17;;;;;;;;;;;;;;;10.44;100.00;100634.13;5075480;28;19920;-62
2023/01/11 05:00:42;;;;;;;;;;;;;;;10.42;100.00;100636.97;5074919;28;19923;-63
2023/01/11 05:03:08;;;;;;;;;;;;;;;10.40;100.00;100630.97;5076278;28;20023;-62
2023/01/11 05:05:33;;;;;;;;;;;;;;;10.41;100.00;100634.50;5082874;28;19916;-62
2023/01/11 05:07:58;;;;;;;;;;;;;;;10.43;100.00;100646.59;5084634;28;19932;-61
2023/01/11 05:10:23;;;;;;;;;;;;;;;10.44;100.00;100642.09;5079160;28;19962;-62
2023/01/11 05:12:49;;;;;;;;;;;;;;;10.44;100.00;100652.72;5081426;28;19955;-62
2023/01/11 05:15:15;;;;;;;;;;;;;;;10.44;100.00;100640.28;5071617;28;20338;-62
2023/01/11 05:17:40;;;;;;;;;;;;;;;10.48;100.00;100648.72;5084775;28;19981;-65
2023/01/11 05:20:05;;;;;;;;;;;;;;;10.46;100.00;100651.53;5084195;28;20379;-62
2023/01/11 05:22:30;;;;;;;;;;;;;;;10.50;100.00;100660.81;5077395;28;19919;-62
2023/01/11 05:24:56;;;;;;;;;;;;;;;10.50;100.00;100658.16;5082308;28;20372;-61
2023/01/11 05:27:21;;;;;;;;;;;;;;;10.55;100.00;100657.63;5087730;28;19947;-62
2023/01/11 05:29:46;;;;;;;;;;;;;;;10.62;100.00;100641.81;5080478;28;19923;-61
2023/01/11 05:32:12;;;;;;;;;;;;;;;10.65;100.00;100654.72;5081814;28;20042;-63
2023/01/11 05:34:37;;;;;;;;;;;;;;;10.62;100.00;100668.38;5086202;28;19915;-61
2023/01/11 05:37:02;;;;;;;;;;;;;;;10.59;100.00;100669.53;5087217;28;19924;-61
2023/01/11 05:39:28;;;;;;;;;;;;;;;10.65;100.00;100671.50;5086248;28;19965;-63
2023/01/11 05:41:53;;;;;;;;;;;;;;;10.64;100.00;100655.75;5079083;28;19924;-62
2023/01/11 05:47:03;;;;;;;;;;;;;;;10.69;100.00;100680.75;5089395;28;19919;-62
2023/01/11 05:49:28;;;;;;;;;;;;;;;10.72;100.00;100671.66;5072661;28;20333;-62
2023/01/11 05:51:53;;;;;;;;;;;;;;;10.76;100.00;100687.06;5087070;28;19915;-61
2023/01/11 05:54:18;;;;;;;;;;;;;;;10.78;100.00;100666.44;5081085;28;19943;-62
2023/01/11 05:56:44;;;;;;;;;;;;;;;10.74;100.00;100680.25;5084144;28;19926;-61
2023/01/11 05:59:09;;;;;;;;;;;;;;;10.66;100.00;100685.59;5083284;28;19923;-61
2023/01/11 06:01:34;;;;;;;;;;;;;;;10.66;100.00;100682.94;5101995;28;19916;-62
2023/01/11 06:04:00;;;;;;;;;;;;;;;10.62;100.00;100679.00;5084594;28;19928;-62
2023/01/11 06:06:25;;;;;;;;;;;;;;;10.58;100.00;100701.59;5079255;28;19983;-61
2023/01/11 06:08:50;;;;;;;;;;;;;;;10.50;100.00;100700.63;5098854;28;19927;-63
2023/01/11 06:11:16;;;;;;;;;;;;;;;10.46;100.00;100701.16;5075443;28;19920;-61
2023/01/11 06:13:41;;;;;;;;;;;;;;;10.42;100.00;100692.72;5085483;28;20011;-63
2023/01/11 06:16:08;;;;;;;;;;;;;;;10.37;100.00;100695.03;5078409;28;20065;-61
2023/01/11 06:18:35;;;;;;;;;;;;;;;10.29;100.00;100694.25;5087162;28;19956;-61
2023/01/11 06:21:00;;;;;;;;;;;;;;;10.27;100.00;100694.44;5081460;28;19920;-61
2023/01/11 06:23:26;;;;;;;;;;;;;;;10.19;100.00;100695.25;5072164;28;19947;-62
2023/01/11 06:25:51;;;;;;;;;;;;;;;10.11;100.00;100715.66;5081309;28;19916;-61
2023/01/11 06:28:16;;;;;;;;;;;;;;;10.08;100.00;100714.19;5084586;28;20368;-61
2023/01/11 06:30:42;;;;;;;;;;;;;;;10.05;100.00;100725.13;5076751;28;19920;-61
2023/01/11 06:33:07;;;;;;;;;;;;;;;10.04;100.00;100726.13;5084514;28;20284;-62
2023/01/11 06:35:33;;;;;;;;;;;;;;;9.94;100.00;100723.69;5084555;28;19969;-60
2023/01/11 06:37:58;;;;;;;;;;;;;;;9.94;100.00;100730.81;5083569;28;20041;-61
2023/01/11 06:40:23;;;;;;;;;;;;;;;9.87;100.00;100738.63;5080320;28;20524;-60
2023/01/11 06:42:49;;;;;;;;;;;;;;;9.92;100.00;100751.38;5091625;28;19935;-62
2023/01/11 06:45:14;;;;;;;;;;;;;;;9.92;100.00;100738.94;5082769;28;19916;-61
2023/01/11 06:47:39;;;;;;;;;;;;;;;9.82;100.00;100751.53;5079266;28;19920;-62
2023/01/11 06:50:04;;;;;;;;;;;;;;;9.76;100.00;100760.16;5073728;28;19919;-62
2023/01/11 06:52:30;;;;;;;;;;;;;;;9.81;100.00;100749.06;5078890;28;19978;-61
2023/01/11 06:54:55;;;;;;;;;;;;;;;9.73;100.00;100747.25;5074370;28;20359;-61
2023/01/11 06:57:20;;;;;;;;;;;;;;;9.69;100.00;100792.84;5072855;28;19924;-62
2023/01/11 06:59:45;;;;;;;;;;;;;;;9.72;100.00;100792.50;5070630;28;20038;-64
2023/01/11 07:02:10;;;;;;;;;;;;;;;9.74;100.00;100793.16;5072893;28;19932;-61
2023/01/11 07:04:35;;;;;;;;;;;;;;;9.63;100.00;100796.97;5074000;28;20022;-61
2023/01/11 07:07:01;;;;;;;;;;;;;;;9.60;100.00;100784.06;5069185;28;20298;-61
2023/01/11 07:09:26;;;;;;;;;;;;;;;9.60;100.00;100779.59;5076912;28;19924;-62
2023/01/11 07:11:51;;;;;;;;;;;;;;;9.56;100.00;100767.66;5083701;28;19924;-61
2023/01/11 07:14:18;;;;;;;;;;;;;;;9.52;100.00;100779.56;5079248;28;20515;-62
2023/01/11 07:16:44;;;;;;;;;;;;;;;9.47;100.00;100784.53;5075017;28;20268;-61
2023/01/11 07:19:09;;;;;;;;;;;;;;;9.44;100.00;100798.13;5078610;28;20417;-62
2023/01/11 07:21:34;;;;;;;;;;;;;;;9.42;100.00;100793.97;5078402;28;20335;-63
2023/01/11 07:24:00;;;;;;;;;;;;;;;9.42;100.00;100794.81;5071964;28;20016;-61
2023/01/11 07:26:27;;;;;;;;;;;;;;;9.34;100.00;100800.09;5080273;28;19916;-61
2023/01/11 07:28:52;;;;;;;;;;;;;;;9.32;100.00;100812.69;5073525;28;19921;-61
2023/01/11 07:31:17;;;;;;;;;;;;;;;9.35;100.00;100822.97;5081291;28;19916;-61
2023/01/11 07:33:42;;;;;;;;;;;;;;;9.32;100.00;100820.63;5068742;28;20018;-61
2023/01/11 07:36:07;;;;;;;;;;;;;;;9.35;100.00;100827.44;5071366;28;19916;-64
2023/01/11 07:38:33;;;;;;;;;;;;;;;9.29;100.00;100836.88;5071163;28;19921;-60
2023/01/11 07:40:58;;;;;;;;;;;;;;;9.20;100.00;100838.66;5069081;28;20501;-65
2023/01/11 07:43:23;;;;;;;;;;;;;;;9.17;100.00;100841.63;5070690;28;20294;-63
2023/01/11 07:45:49;;;;;;;;;;;;;;;9.20;100.00;100840.47;5069126;28;20320;-61
2023/01/11 07:48:19;;;;;;;;;;;;;;;9.16;100.00;100839.97;5071413;28;19916;-61
2023/01/11 07:50:44;;;;;;;;;;;;;;;9.19;100.00;100844.09;5071866;28;19928;-61
2023/01/11 07:53:09;;;;;;;;;;;;;;;9.18;100.00;100843.28;5085931;28;20007;-62
2023/01/11 07:55:35;;;;;;;;;;;;;;;9.14;100.00;100849.06;5090253;28;19912;-60
2023/01/11 07:58:01;;;;;;;;;;;;;;;9.12;100.00;100851.88;5087530;28;19924;-60
2023/01/11 08:00:27;;;;;;;;;;;;;;;9.11;100.00;100850.22;5089874;28;20367;-60
2023/01/11 08:02:52;;;;;;;;;;;;;;;9.06;100.00;100857.00;5081543;28;19916;-60
2023/01/11 08:05:18;;;;;;;;;;;;;;;9.05;100.00;100868.59;5086350;28;19916;-59
2023/01/11 08:07:43;;;;;;;;;;;;;;;8.95;100.00;100877.47;5084556;28;20376;-62
2023/01/11 08:10:10;;;;;;;;;;;;;;;8.93;100.00;100879.44;5090134;28;22287;-61
2023/01/11 08:15:24;;;;;;;;;;;;;;;8.82;100.00;100887.69;5085162;28;20346;-62
2023/01/11 08:17:49;;;;;;;;;;;;;;;8.85;100.00;100895.31;5083434;28;19928;-61
2023/01/11 08:20:14;;;;;;;;;;;;;;;8.85;100.00;100903.25;5092982;28;19963;-61
2023/01/11 08:22:40;;;;;;;;;;;;;;;8.79;100.00;100908.34;5077349;28;20362;-61
2023/01/11 08:25:05;;;;;;;;;;;;;;;8.81;100.00;100911.66;5079879;28;19966;-61
2023/01/11 08:27:30;;;;;;;;;;;;;;;8.80;100.00;100921.44;5081214;28;20290;-61
2023/01/11 08:29:56;;;;;;;;;;;;;;;8.79;100.00;100926.88;5074222;28;20407;-63
2023/01/11 08:32:21;;;;;;;;;;;;;;;8.80;100.00;100934.66;5074640;28;20287;-60
2023/01/11 08:34:46;;;;;;;;;;;;;;;8.77;100.00;100942.09;5075063;28;19924;-61
2023/01/11 08:37:12;;;;;;;;;;;;;;;8.69;100.00;100946.38;5084448;28;20035;-62
2023/01/11 08:39:37;;;;;;;;;;;;;;;8.67;100.00;100956.28;5083124;28;20389;-61
2023/01/11 08:42:02;;;;;;;;;;;;;;;8.71;100.00;100970.03;5073514;28;21382;-62
2023/01/11 08:44:27;;;;;;;;;;;;;;;8.65;100.00;100965.34;5072502;28;19947;-61
2023/01/11 08:46:52;;;;;;;;;;;;;;;8.64;100.00;100969.81;5075121;28;19924;-60
2023/01/11 08:49:18;;;;;;;;;;;;;;;8.60;100.00;100968.44;5081342;28;20015;-61
2023/01/11 08:51:43;;;;;;;;;;;;;;;8.62;100.00;100977.06;5080436;28;20011;-62
2023/01/11 08:54:10;;;;;;;;;;;;;;;8.55;100.00;100969.91;5074781;28;19969;-61
2023/01/11 08:56:36;;;;;;;;;;;;;;;8.55;100.00;100980.50;5080250;28;19946;-62
2023/01/11 08:59:01;;;;;;;;;;;;;;;8.55;100.00;100980.50;5081592;28;19928;-61
2023/01/11 09:01:26;;;;;;;;;;;;;;;8.53;100.00;100988.59;5078210;28;20787;-61
2023/01/11 09:03:52;;;;;;;;;;;;;;;8.57;100.00;100987.28;5072925;28;19942;-61
2023/01/11 09:06:17;;;;;;;;;;;;;;;8.52;100.00;100997.50;5085288;28;20006;-60
2023/01/11 09:08:43;;;;;;;;;;;;;;;8.46;100.00;100981.44;5079677;28;20449;-61
2023/01/11 09:11:52;;;;;;;;;;;;;;;8.48;100.00;100979.44;5082653;28;19969;-61
2023/01/11 09:13:53;;;;;;;;;;;;;;;8.44;100.00;100984.22;5085322;28;20387;-62
2023/01/11 09:16:18;;;;;;;;;;;;;;;8.47;100.00;100997.16;5081450;28;20015;-61
2023/01/11 09:18:43;;;;;;;;;;;;;;;8.42;100.00;100991.50;5072755;28;19921;-62
2023/01/11 09:21:09;;;;;;;;;;;;;;;8.44;100.00;100986.88;5078525;28;19998;-61
2023/01/11 09:23:34;;;;;;;;;;;;;;;8.42;100.00;100996.78;5086113;28;19912;-62
2023/01/11 09:25:59;;;;;;;;;;;;;;;8.37;100.00;100994.56;5077374;28;20032;-61
2023/01/11 09:28:24;;;;;;;;;;;;;;;8.34;100.00;100994.88;5072239;28;19994;-62
2023/01/11 09:30:51;;;;;;;;;;;;;;;8.31;100.00;101008.38;5071076;28;20011;-61
2023/01/11 09:33:16;;;;;;;;;;;;;;;8.31;100.00;101013.66;5077352;28;20329;-60
2023/01/11 09:35:44;;;;;;;;;;;;;;;8.22;100.00;101019.03;5072752;28;19920;-61
2023/01/11 09:38:09;;;;;;;;;;;;;;;8.24;100.00;101017.91;5069070;28;19935;-64
2023/01/11 09:40:44;;;;;;;;;;;;;;;8.24;100.00;101023.19;5079505;28;19918;-61
2023/01/11 09:43:11;;;;;;;;;;;;;;;8.24;100.00;101019.72;5081028;28;19916;-60
2023/01/11 09:45:41;;;;;;;;;;;;;;;8.28;100.00;101032.50;5079172;28;20312;-61
2023/01/11 09:48:11;;;;;;;;;;;;;;;8.32;100.00;101028.56;5079919;28;20294;-60
2023/01/11 09:50:42;;;;;;;;;;;;;;;8.41;100.00;101036.63;5076398;28;20735;-61
2023/01/11 09:53:11;;;;;;;;;;;;;;;8.51;100.00;101026.78;5086097;28;20379;-61
2023/01/11 09:55:36;;;;;;;;;;;;;;;8.53;100.00;101040.69;5078479;28;19916;-61
2023/01/11 09:58:07;;;;;;;;;;;;;;;8.58;100.00;101049.00;5078016;28;19920;-61
2023/01/11 10:00:44;;;;;;;;;;;;;;;8.62;100.00;101035.31;5077874;28;19924;-61
2023/01/11 10:03:28;;;;;;;;;;;;;;;8.72;99.63;101063.53;5084135;28;19938;-61
2023/01/11 10:05:58;;;;;;;;;;;;;;;8.72;99.27;101045.84;5083160;28;19916;-61
2023/01/11 10:08:49;;;;;;;;;;;;;;;8.77;98.35;101048.84;5075295;28;20004;-63
2023/01/11 10:11:40;;;;;;;;;;;;;;;8.79;98.54;101046.88;5073728;28;19932;-61
2023/01/11 10:14:13;;;;;;;;;;;;;;;8.83;98.55;101048.22;5082045;28;19916;-61
2023/01/11 10:16:58;;;;;;;;;;;;;;;8.89;98.07;101050.25;5078433;28;20398;-60
2023/01/11 10:19:28;;;;;;;;;;;;;;;8.87;97.97;101044.28;5085346;28;19916;-64
2023/01/11 10:22:07;;;;;;;;;;;;;;;8.96;97.87;101053.09;5085013;28;19942;-63
2023/01/11 10:24:37;;;;;;;;;;;;;;;9.03;97.77;101046.22;5081530;28;19970;-61
2023/01/11 10:27:08;;;;;;;;;;;;;;;9.02;97.74;101046.38;5082228;28;20335;-61
2023/01/11 10:29:45;;;;;;;;;;;;;;;8.98;96.96;101037.91;5074042;28;19930;-63
2023/01/11 10:32:50;;;;;;;;;;;;;;;9.01;97.37;101048.19;5069715;28;19916;-62
2023/01/11 10:38:35;;;;;;;;;;;;;;;9.02;96.98;101055.16;5077901;28;19930;-60
2023/01/11 10:41:18;;;;;;;;;;;;;;;9.11;96.52;101051.56;5084462;28;19959;-61
2023/01/11 10:43:46;;;;;;;;;;;;;;;9.10;96.12;101046.44;5092815;28;20002;-61
2023/01/11 10:46:16;;;;;;;;;;;;;;;9.15;95.91;101052.09;5093145;28;19921;-60
2023/01/11 10:48:42;;;;;;;;;;;;;;;9.15;95.49;101065.31;5081943;28;19959;-61
2023/01/11 10:51:07;;;;;;;;;;;;;;;9.19;94.96;101064.84;5089311;28;19958;-60
2023/01/11 10:53:36;;;;;;;;;;;;;;;9.18;94.53;101054.41;5092424;28;19952;-61
2023/01/11 10:56:23;;;;;;;;;;;;;;;9.20;94.30;101071.00;5081292;28;20399;-61
2023/01/11 10:58:57;;;;;;;;;;;;;;;9.23;93.46;101057.41;5085757;28;20404;-61
2023/01/11 11:01:44;;;;;;;;;;;;;;;9.25;93.64;101064.25;5080438;28;19920;-62
2023/01/11 11:04:09;;;;;;;;;;;;;;;9.27;93.58;101067.59;5082030;28;20061;-64
2023/01/11 11:06:41;;;;;;;;;;;;;;;9.32;92.96;101067.94;5069955;28;19995;-64
2023/01/11 11:09:14;;;;;;;;;;;;;;;9.37;92.26;101072.75;5070487;28;19958;-62
2023/01/11 11:11:45;;;;;;;;;;;;;;;9.41;91.91;101073.28;5076077;28;19920;-61
2023/01/11 11:14:23;;;;;;;;;;;;;;;9.42;92.10;101074.94;5074315;28;19920;-63
2023/01/11 11:16:54;;;;;;;;;;;;;;;9.42;91.17;101074.94;5080079;28;19962;-62
2023/01/11 11:19:22;;;;;;;;;;;;;;;9.41;91.08;101060.84;5079453;28;19980;-61
2023/01/11 11:21:48;;;;;;;;;;;;;;;9.44;90.74;101065.84;5078735;28;19913;-60
2023/01/11 11:24:16;;;;;;;;;;;;;;;9.41;90.53;101066.16;5072234;28;19916;-61
2023/01/11 11:26:43;;;;;;;;;;;;;;;9.42;89.94;101069.63;5078133;28;20059;-62
2023/01/11 11:29:09;;;;;;;;;;;;;;;9.49;89.17;101065.34;5082739;28;19936;-62
2023/01/11 11:31:37;;;;;;;;;;;;;;;9.44;89.20;101072.97;5080905;28;19920;-61
2023/01/11 11:34:06;;;;;;;;;;;;;;;9.47;89.44;101070.00;5083762;28;19970;-61
2023/01/11 11:36:45;;;;;;;;;;;;;;;9.54;89.00;101071.00;5077273;28;20042;-61
2023/01/11 11:39:10;;;;;;;;;;;;;;;9.64;88.94;101074.41;5084310;28;20527;-61
2023/01/11 11:41:46;;;;;;;;;;;;;;;9.69;88.14;101073.91;5078352;28;20426;-60
2023/01/11 11:44:16;;;;;;;;;;;;;;;9.78;88.30;101086.22;5078805;28;20611;-60
2023/01/11 11:46:54;;;;;;;;;;;;;;;9.89;87.98;101088.59;5079575;28;19927;-61
2023/01/11 11:49:19;;;;;;;;;;;;;;;9.94;87.17;101092.44;5076470;28;19927;-61
2023/01/11 11:51:45;;;;;;;;;;;;;;;9.95;87.32;101082.66;5085332;28;19912;-62
2023/01/11 11:54:18;;;;;;;;;;;;;;;9.98;86.62;101082.31;5083533;28;19923;-60
2023/01/11 11:56:43;;;;;;;;;;;;;;;10.09;85.61;101092.63;5079534;28;19916;-64
2023/01/11 11:59:12;;;;;;;;;;;;;;;10.15;85.25;101078.75;5080648;28;19924;-61
2023/01/11 12:01:39;;;;;;;;;;;;;;;10.21;84.81;101072.81;5077016;28;19916;-61
2023/01/11 12:04:16;;;;;;;;;;;;;;;10.32;83.68;101084.09;5085308;28;19924;-61
2023/01/11 12:06:42;;;;;;;;;;;;;;;10.23;82.91;101089.41;5082139;28;20768;-61
2023/01/11 12:09:27;;;;;;;;;;;;;;;10.22;82.92;101071.81;5085598;28;20874;-61
2023/01/11 12:11:52;;;;;;;;;;;;;;;10.22;82.19;101069.16;5081258;28;20315;-62
2023/01/11 12:14:22;;;;;;;;;;;;;;;10.02;81.31;101066.91;5080643;28;20467;-61
2023/01/11 12:16:47;;;;;;;;;;;;;;;10.01;81.50;101078.50;5077704;28;19977;-62
2023/01/11 12:19:31;;;;;;;;;;;;;;;9.97;81.57;101079.84;5081371;28;20014;-61
2023/01/11 12:22:15;;;;;;;;;;;;;;;10.05;80.94;101107.22;5082272;28;19916;-60
2023/01/11 12:24:40;;;;;;;;;;;;;;;9.91;80.87;101095.41;5070526;28;20515;-61
2023/01/11 12:27:05;;;;;;;;;;;;;;;9.93;80.98;101093.41;5081345;28;20026;-61
2023/01/11 12:29:51;;;;;;;;;;;;;;;9.93;80.40;101103.19;5076343;28;19920;-60
2023/01/11 12:32:16;;;;;;;;;;;;;;;10.01;80.47;101103.22;5083569;28;19927;-61
2023/01/11 12:35:05;;;;;;;;;;;;;;;10.03;80.26;101109.19;5081471;28;19924;-61
2023/01/11 12:37:30;;;;;;;;;;;;;;;10.17;80.00;101095.31;5076804;28;20059;-63
2023/01/11 12:39:55;;;;;;;;;;;;;;;10.25;79.01;101102.50;5070792;28;19995;-61
2023/01/11 12:42:39;;;;;;;;;;;;;;;10.34;78.64;101116.63;5074245;28;19920;-61
2023/01/11 12:45:10;;;;;;;;;;;;;;;10.40;77.32;101108.00;5084914;28;19916;-58
2023/01/11 12:47:50;;;;;;;;;;;;;;;10.18;76.34;101086.38;5075222;28;19923;-62
2023/01/11 12:50:19;;;;;;;;;;;;;;;10.15;77.21;101107.94;5081548;28;19916;-61
2023/01/11 12:52:51;;;;;;;;;;;;;;;10.03;77.29;101098.59;5084036;28;20329;-60
2023/01/11 12:55:19;;;;;;;;;;;;;;;10.14;77.29;101094.81;5090339;28;19923;-60
2023/01/11 12:57:59;;;;;;;;;;;;;;;10.27;77.33;101092.56;5082599;28;19959;-61
2023/01/11 13:00:36;;;;;;;;;;;;;;;10.32;77.02;101100.03;5081980;28;19916;-61
2023/01/11 13:03:21;;;;;;;;;;;;;;;10.32;77.12;101100.84;5085228;28;20300;-61
2023/01/11 13:06:01;;;;;;;;;;;;;;;10.32;76.80;101095.56;5074020;28;19963;-62